Gardiner, Oregon
Current Conditions -  °F | °C
As of 2:55 AM on Wednesday 22 Oct 2014 (Local Time) from KOTH Reporting Station
Overcast Overcast  
Wind Chill: 57°   Ceiling: 2700
Heat Index: 57°   Visibility: 10mi
Dew Point: 57°   Wind: 9mph
Humidity: 100%   Direction: 170°S
Pressure: 29.88"   Gusts: NA
Location:  43.73°N, 124.11°W
Report Text: KOTH 220955Z 17008KT 10SM BKN027 OVC070 14/14 A2988 RMK AO1 P0001
Loading
Personal Weather Stations






























Interactive Weather Map
Tropical Storm Tracking
New forecast layout! Learn more

10-Day Weather Forecast

Advertisements
Track Severe Weather on mobile